Aviation Digital Data Service (ADDS)

Output produced by METARs form (1507 UTC 15 October 2018)
found at http://aviationweather.gov/metar/data/
 
KCLL 151453Z 35014G24KT 10SM -RA OVC012 10/09 A3014 RMK AO2 PK WND 35028/1438 LTG DSNT SW RAB13 SLP202 P0001 60001 T01000094 53032
KCLL 151311Z 1513/1612 35014G24KT P6SM OVC011 
     FM151500 36015KT P6SM VCSH OVC015 
     FM152100 36015KT P6SM OVC008 
     TEMPO 1521/1524 4SM -TSRA OVC005CB 
     FM160000 36015KT 6SM -SHRA OVC008 
     PROB30 1600/1603 2SM TS OVC005CB